sensor_id;sensor_type;location;lat;lon;timestamp;pressure;altitude;pressure_sealevel;temperature;humidity
8051;BME280;4068;42.158;24.732;2022-11-15T00:01:25;100409.41;;;6.43;100.00
8051;BME280;4068;42.158;24.732;2022-11-15T00:03:51;100401.53;;;6.24;100.00
8051;BME280;4068;42.158;24.732;2022-11-15T00:06:16;100411.94;;;6.27;100.00
8051;BME280;4068;42.158;24.732;2022-11-15T00:08:42;100397.72;;;6.12;100.00
8051;BME280;4068;42.158;24.732;2022-11-15T00:11:10;100409.25;;;6.29;100.00
8051;BME280;4068;42.158;24.732;2022-11-15T00:13:35;100401.69;;;6.21;100.00
8051;BME280;4068;42.158;24.732;2022-11-15T00:16:01;100410.81;;;6.14;100.00
8051;BME280;4068;42.158;24.732;2022-11-15T00:18:29;100412.84;;;6.09;100.00
8051;BME280;4068;42.158;24.732;2022-11-15T00:20:55;100409.72;;;6.00;100.00
8051;BME280;4068;42.158;24.732;2022-11-15T00:23:20;100408.84;;;6.00;100.00
8051;BME280;4068;42.158;24.732;2022-11-15T00:25:45;100400.44;;;5.92;100.00
8051;BME280;4068;42.158;24.732;2022-11-15T00:28:11;100411.31;;;5.84;100.00
8051;BME280;4068;42.158;24.732;2022-11-15T00:30:37;100388.34;;;5.87;100.00
8051;BME280;4068;42.158;24.732;2022-11-15T00:33:03;100412.34;;;6.00;100.00
8051;BME280;4068;42.158;24.732;2022-11-15T00:35:32;100399.94;;;6.02;100.00
8051;BME280;4068;42.158;24.732;2022-11-15T00:37:59;100377.97;;;5.84;100.00
8051;BME280;4068;42.158;24.732;2022-11-15T00:40:25;100391.75;;;5.90;100.00
8051;BME280;4068;42.158;24.732;2022-11-15T00:42:50;100411.75;;;5.94;100.00
8051;BME280;4068;42.158;24.732;2022-11-15T00:45:15;100402.50;;;5.85;100.00
8051;BME280;4068;42.158;24.732;2022-11-15T00:47:44;100399.03;;;5.84;100.00
8051;BME280;4068;42.158;24.732;2022-11-15T00:50:10;100398.81;;;5.89;100.00
8051;BME280;4068;42.158;24.732;2022-11-15T00:52:35;100395.09;;;5.93;100.00
8051;BME280;4068;42.158;24.732;2022-11-15T00:55:01;100400.81;;;6.03;100.00
8051;BME280;4068;42.158;24.732;2022-11-15T00:57:26;100394.94;;;5.96;100.00
8051;BME280;4068;42.158;24.732;2022-11-15T00:59:52;100394.75;;;6.01;100.00
8051;BME280;4068;42.158;24.732;2022-11-15T01:02:17;100399.78;;;6.05;100.00
8051;BME280;4068;42.158;24.732;2022-11-15T01:04:42;100400.59;;;6.08;100.00
8051;BME280;4068;42.158;24.732;2022-11-15T01:07:08;100393.28;;;6.13;100.00
8051;BME280;4068;42.158;24.732;2022-11-15T01:09:33;100397.56;;;6.15;100.00
8051;BME280;4068;42.158;24.732;2022-11-15T01:11:59;100392.16;;;6.18;100.00
8051;BME280;4068;42.158;24.732;2022-11-15T01:14:24;100389.91;;;6.11;100.00
8051;BME280;4068;42.158;24.732;2022-11-15T01:16:49;100376.16;;;6.04;100.00
8051;BME280;4068;42.158;24.732;2022-11-15T01:19:15;100367.72;;;5.97;100.00
8051;BME280;4068;42.158;24.732;2022-11-15T01:21:40;100380.69;;;6.19;100.00
8051;BME280;4068;42.158;24.732;2022-11-15T01:24:06;100375.91;;;6.28;100.00
8051;BME280;4068;42.158;24.732;2022-11-15T01:26:31;100377.31;;;6.35;100.00
8051;BME280;4068;42.158;24.732;2022-11-15T01:28:57;100382.50;;;6.36;100.00
8051;BME280;4068;42.158;24.732;2022-11-15T01:31:22;100380.72;;;6.37;100.00
8051;BME280;4068;42.158;24.732;2022-11-15T01:33:48;100348.84;;;6.24;100.00
8051;BME280;4068;42.158;24.732;2022-11-15T01:36:19;100386.28;;;6.48;100.00
8051;BME280;4068;42.158;24.732;2022-11-15T01:38:47;100376.91;;;6.43;100.00
8051;BME280;4068;42.158;24.732;2022-11-15T01:41:18;100374.00;;;6.49;100.00
8051;BME280;4068;42.158;24.732;2022-11-15T01:43:46;100379.72;;;6.57;100.00
8051;BME280;4068;42.158;24.732;2022-11-15T01:46:26;100373.13;;;6.48;100.00
8051;BME280;4068;42.158;24.732;2022-11-15T01:48:54;100374.91;;;6.48;100.00
8051;BME280;4068;42.158;24.732;2022-11-15T01:51:24;100364.84;;;6.38;100.00
8051;BME280;4068;42.158;24.732;2022-11-15T01:53:54;100342.44;;;6.30;100.00
8051;BME280;4068;42.158;24.732;2022-11-15T01:56:27;100368.31;;;6.56;100.00
8051;BME280;4068;42.158;24.732;2022-11-15T01:58:55;100365.09;;;6.51;100.00
8051;BME280;4068;42.158;24.732;2022-11-15T02:01:24;100375.84;;;6.47;100.00
8051;BME280;4068;42.158;24.732;2022-11-15T02:03:54;100353.19;;;6.43;100.00
8051;BME280;4068;42.158;24.732;2022-11-15T02:06:22;100376.22;;;6.56;100.00
8051;BME280;4068;42.158;24.732;2022-11-15T02:08:49;100380.75;;;6.54;100.00
8051;BME280;4068;42.158;24.732;2022-11-15T02:11:14;100373.34;;;6.61;100.00
8051;BME280;4068;42.158;24.732;2022-11-15T02:13:40;100346.09;;;6.45;100.00
8051;BME280;4068;42.158;24.732;2022-11-15T02:29:55;100377.69;;;6.62;100.00
8051;BME280;4068;42.158;24.732;2022-11-15T02:32:50;100364.44;;;6.64;100.00
8051;BME280;4068;42.158;24.732;2022-11-15T02:38:17;100361.13;;;6.60;100.00
8051;BME280;4068;42.158;24.732;2022-11-15T02:40:52;100356.38;;;6.67;100.00
8051;BME280;4068;42.158;24.732;2022-11-15T02:43:26;100364.53;;;6.62;100.00
8051;BME280;4068;42.158;24.732;2022-11-15T02:46:19;100358.56;;;6.59;100.00
8051;BME280;4068;42.158;24.732;2022-11-15T02:48:47;100360.81;;;6.66;100.00
8051;BME280;4068;42.158;24.732;2022-11-15T02:51:13;100358.41;;;6.62;100.00
8051;BME280;4068;42.158;24.732;2022-11-15T02:53:39;100357.69;;;6.58;100.00
8051;BME280;4068;42.158;24.732;2022-11-15T02:56:04;100361.41;;;6.54;100.00
8051;BME280;4068;42.158;24.732;2022-11-15T03:04:24;100351.41;;;6.61;100.00
8051;BME280;4068;42.158;24.732;2022-11-15T03:07:13;100357.19;;;6.51;100.00
8051;BME280;4068;42.158;24.732;2022-11-15T03:12:51;100356.94;;;6.56;100.00
8051;BME280;4068;42.158;24.732;2022-11-15T03:15:24;100357.31;;;6.48;100.00
8051;BME280;4068;42.158;24.732;2022-11-15T03:17:59;100356.38;;;6.49;100.00
8051;BME280;4068;42.158;24.732;2022-11-15T03:20:26;100334.53;;;6.30;100.00
8051;BME280;4068;42.158;24.732;2022-11-15T03:22:55;100356.88;;;6.40;100.00
8051;BME280;4068;42.158;24.732;2022-11-15T03:25:24;100356.63;;;6.45;100.00
8051;BME280;4068;42.158;24.732;2022-11-15T03:27:53;100355.84;;;6.43;100.00
8051;BME280;4068;42.158;24.732;2022-11-15T03:30:20;100352.13;;;6.47;100.00
8051;BME280;4068;42.158;24.732;2022-11-15T03:32:55;100357.47;;;6.45;100.00
8051;BME280;4068;42.158;24.732;2022-11-15T03:35:23;100343.91;;;6.53;100.00
8051;BME280;4068;42.158;24.732;2022-11-15T03:38:24;100337.94;;;6.49;100.00
8051;BME280;4068;42.158;24.732;2022-11-15T03:40:58;100338.72;;;6.51;100.00
8051;BME280;4068;42.158;24.732;2022-11-15T03:43:33;100337.94;;;6.49;100.00
8051;BME280;4068;42.158;24.732;2022-11-15T03:46:05;100337.09;;;6.49;100.00
8051;BME280;4068;42.158;24.732;2022-11-15T03:48:36;100330.19;;;6.46;100.00
8051;BME280;4068;42.158;24.732;2022-11-15T03:51:05;100329.34;;;6.46;100.00
8051;BME280;4068;42.158;24.732;2022-11-15T03:53:30;100303.53;;;6.35;100.00
8051;BME280;4068;42.158;24.732;2022-11-15T03:55:57;100322.13;;;6.49;100.00
8051;BME280;4068;42.158;24.732;2022-11-15T03:58:22;100322.63;;;6.40;100.00
8051;BME280;4068;42.158;24.732;2022-11-15T04:00:48;100319.34;;;6.35;100.00
8051;BME280;4068;42.158;24.732;2022-11-15T04:03:13;100321.34;;;6.30;100.00
8051;BME280;4068;42.158;24.732;2022-11-15T04:05:38;100316.06;;;6.30;100.00
8051;BME280;4068;42.158;24.732;2022-11-15T04:08:04;100315.16;;;6.31;100.00
8051;BME280;4068;42.158;24.732;2022-11-15T04:10:29;100303.94;;;6.27;100.00
8051;BME280;4068;42.158;24.732;2022-11-15T04:12:54;100314.16;;;6.33;100.00
8051;BME280;4068;42.158;24.732;2022-11-15T04:15:22;100311.69;;;6.30;100.00
8051;BME280;4068;42.158;24.732;2022-11-15T04:17:48;100298.44;;;6.32;100.00
8051;BME280;4068;42.158;24.732;2022-11-15T04:20:18;100296.19;;;6.42;100.00
8051;BME280;4068;42.158;24.732;2022-11-15T04:23:06;100293.53;;;6.59;100.00
8051;BME280;4068;42.158;24.732;2022-11-15T04:25:52;100263.41;;;6.47;100.00
8051;BME280;4068;42.158;24.732;2022-11-15T04:28:18;100291.25;;;6.69;100.00
8051;BME280;4068;42.158;24.732;2022-11-15T04:30:44;100290.09;;;6.74;100.00
8051;BME280;4068;42.158;24.732;2022-11-15T04:33:09;100301.84;;;6.85;100.00
8051;BME280;4068;42.158;24.732;2022-11-15T04:35:35;100296.75;;;6.82;100.00
8051;BME280;4068;42.158;24.732;2022-11-15T04:38:01;100296.91;;;6.79;100.00
8051;BME280;4068;42.158;24.732;2022-11-15T04:40:27;100303.94;;;6.78;100.00
8051;BME280;4068;42.158;24.732;2022-11-15T04:42:52;100309.09;;;6.64;100.00
8051;BME280;4068;42.158;24.732;2022-11-15T04:45:18;100306.75;;;6.75;100.00
8051;BME280;4068;42.158;24.732;2022-11-15T04:47:44;100290.72;;;6.62;100.00
8051;BME280;4068;42.158;24.732;2022-11-15T04:50:11;100300.09;;;6.68;100.00
8051;BME280;4068;42.158;24.732;2022-11-15T04:52:42;100304.53;;;6.67;100.00
8051;BME280;4068;42.158;24.732;2022-11-15T04:55:10;100297.16;;;6.56;100.00
8051;BME280;4068;42.158;24.732;2022-11-15T04:57:35;100298.25;;;6.52;100.00
8051;BME280;4068;42.158;24.732;2022-11-15T05:00:04;100283.00;;;6.24;100.00
8051;BME280;4068;42.158;24.732;2022-11-15T05:02:29;100293.06;;;6.33;100.00
8051;BME280;4068;42.158;24.732;2022-11-15T05:05:15;100285.72;;;6.22;100.00
8051;BME280;4068;42.158;24.732;2022-11-15T05:07:40;100298.19;;;6.19;100.00
8051;BME280;4068;42.158;24.732;2022-11-15T05:10:06;100294.66;;;6.20;100.00
8051;BME280;4068;42.158;24.732;2022-11-15T05:12:31;100277.22;;;6.17;100.00
8051;BME280;4068;42.158;24.732;2022-11-15T05:14:56;100266.66;;;6.17;100.00
8051;BME280;4068;42.158;24.732;2022-11-15T05:17:22;100292.91;;;6.36;100.00
8051;BME280;4068;42.158;24.732;2022-11-15T05:19:48;100288.44;;;6.38;100.00
8051;BME280;4068;42.158;24.732;2022-11-15T05:22:13;100296.25;;;6.40;100.00
8051;BME280;4068;42.158;24.732;2022-11-15T05:24:38;100290.59;;;6.48;100.00
8051;BME280;4068;42.158;24.732;2022-11-15T05:27:04;100288.72;;;6.50;100.00
8051;BME280;4068;42.158;24.732;2022-11-15T05:29:29;100290.03;;;6.59;100.00
8051;BME280;4068;42.158;24.732;2022-11-15T05:31:55;100264.84;;;6.53;100.00
8051;BME280;4068;42.158;24.732;2022-11-15T05:34:20;100277.63;;;6.61;100.00
8051;BME280;4068;42.158;24.732;2022-11-15T05:36:48;100258.72;;;6.52;100.00
8051;BME280;4068;42.158;24.732;2022-11-15T05:39:14;100287.38;;;6.76;100.00
8051;BME280;4068;42.158;24.732;2022-11-15T05:41:43;100290.41;;;6.68;100.00
8051;BME280;4068;42.158;24.732;2022-11-15T05:44:12;100276.06;;;6.56;100.00
8051;BME280;4068;42.158;24.732;2022-11-15T05:46:40;100296.69;;;6.66;100.00
8051;BME280;4068;42.158;24.732;2022-11-15T05:49:07;100300.22;;;6.82;100.00
8051;BME280;4068;42.158;24.732;2022-11-15T05:51:34;100301.03;;;7.00;100.00
8051;BME280;4068;42.158;24.732;2022-11-15T05:54:00;100314.50;;;7.12;100.00
8051;BME280;4068;42.158;24.732;2022-11-15T05:56:26;100309.66;;;7.20;100.00
8051;BME280;4068;42.158;24.732;2022-11-15T05:58:55;100314.00;;;7.21;100.00
8051;BME280;4068;42.158;24.732;2022-11-15T06:01:22;100320.31;;;7.18;100.00
8051;BME280;4068;42.158;24.732;2022-11-15T06:03:48;100305.22;;;7.04;100.00
8051;BME280;4068;42.158;24.732;2022-11-15T06:06:13;100315.44;;;7.11;100.00
8051;BME280;4068;42.158;24.732;2022-11-15T06:08:39;100322.16;;;7.16;100.00
8051;BME280;4068;42.158;24.732;2022-11-15T06:11:05;100321.69;;;7.25;100.00
8051;BME280;4068;42.158;24.732;2022-11-15T06:13:31;100312.41;;;7.34;100.00
8051;BME280;4068;42.158;24.732;2022-11-15T06:15:57;100323.22;;;7.46;100.00
8051;BME280;4068;42.158;24.732;2022-11-15T06:18:22;100322.59;;;7.56;100.00
8051;BME280;4068;42.158;24.732;2022-11-15T06:20:48;100327.47;;;7.64;100.00
8051;BME280;4068;42.158;24.732;2022-11-15T06:23:13;100331.56;;;7.70;100.00
8051;BME280;4068;42.158;24.732;2022-11-15T06:25:39;100335.13;;;7.85;100.00
8051;BME280;4068;42.158;24.732;2022-11-15T06:28:04;100296.78;;;7.77;100.00
8051;BME280;4068;42.158;24.732;2022-11-15T06:30:30;100333.41;;;8.00;100.00
8051;BME280;4068;42.158;24.732;2022-11-15T06:32:59;100332.88;;;8.09;100.00
8051;BME280;4068;42.158;24.732;2022-11-15T06:35:25;100325.00;;;8.23;100.00
8051;BME280;4068;42.158;24.732;2022-11-15T06:37:51;100324.75;;;8.28;100.00
8051;BME280;4068;42.158;24.732;2022-11-15T06:40:16;100304.34;;;8.30;100.00
8051;BME280;4068;42.158;24.732;2022-11-15T06:42:42;100323.50;;;8.50;100.00
8051;BME280;4068;42.158;24.732;2022-11-15T06:45:07;100308.38;;;8.52;100.00
8051;BME280;4068;42.158;24.732;2022-11-15T06:47:33;100335.06;;;8.77;100.00
8051;BME280;4068;42.158;24.732;2022-11-15T06:49:58;100322.75;;;8.62;100.00
8051;BME280;4068;42.158;24.732;2022-11-15T06:52:24;100333.19;;;8.65;100.00
8051;BME280;4068;42.158;24.732;2022-11-15T06:54:49;100342.22;;;8.61;100.00
8051;BME280;4068;42.158;24.732;2022-11-15T06:57:15;100346.56;;;8.62;100.00
8051;BME280;4068;42.158;24.732;2022-11-15T06:59:40;100330.78;;;8.60;100.00
8051;BME280;4068;42.158;24.732;2022-11-15T07:02:05;100310.28;;;8.50;100.00
8051;BME280;4068;42.158;24.732;2022-11-15T07:04:31;100343.28;;;8.73;100.00
8051;BME280;4068;42.158;24.732;2022-11-15T07:06:56;100343.69;;;8.81;100.00
8051;BME280;4068;42.158;24.732;2022-11-15T07:09:22;100343.19;;;8.89;100.00
8051;BME280;4068;42.158;24.732;2022-11-15T07:11:47;100336.59;;;9.10;100.00
8051;BME280;4068;42.158;24.732;2022-11-15T07:14:12;100322.22;;;8.86;100.00
8051;BME280;4068;42.158;24.732;2022-11-15T07:16:38;100321.94;;;8.90;100.00
8051;BME280;4068;42.158;24.732;2022-11-15T07:19:03;100338.88;;;9.02;100.00
8051;BME280;4068;42.158;24.732;2022-11-15T07:21:29;100331.09;;;9.13;100.00
8051;BME280;4068;42.158;24.732;2022-11-15T07:23:54;100336.50;;;9.26;100.00
8051;BME280;4068;42.158;24.732;2022-11-15T07:26:20;100326.25;;;9.35;100.00
8051;BME280;4068;42.158;24.732;2022-11-15T07:28:46;100288.47;;;9.32;100.00
8051;BME280;4068;42.158;24.732;2022-11-15T07:31:11;100333.50;;;9.60;100.00
8051;BME280;4068;42.158;24.732;2022-11-15T07:33:37;100282.03;;;9.37;100.00
8051;BME280;4068;42.158;24.732;2022-11-15T07:36:04;100307.44;;;9.54;100.00
8051;BME280;4068;42.158;24.732;2022-11-15T07:38:30;100322.91;;;9.60;100.00
8051;BME280;4068;42.158;24.732;2022-11-15T07:41:00;100324.47;;;9.49;100.00
8051;BME280;4068;42.158;24.732;2022-11-15T07:43:26;100305.59;;;9.68;100.00
8051;BME280;4068;42.158;24.732;2022-11-15T07:45:53;100327.19;;;9.90;100.00
8051;BME280;4068;42.158;24.732;2022-11-15T07:48:18;100314.44;;;10.09;100.00
8051;BME280;4068;42.158;24.732;2022-11-15T07:50:44;100319.09;;;10.18;100.00
8051;BME280;4068;42.158;24.732;2022-11-15T07:53:10;100312.84;;;10.47;100.00
8051;BME280;4068;42.158;24.732;2022-11-15T07:55:35;100307.66;;;10.71;100.00
8051;BME280;4068;42.158;24.732;2022-11-15T07:58:03;100304.78;;;10.74;100.00
8051;BME280;4068;42.158;24.732;2022-11-15T08:00:30;100290.91;;;10.83;100.00
8051;BME280;4068;42.158;24.732;2022-11-15T08:03:21;100303.63;;;10.91;100.00
8051;BME280;4068;42.158;24.732;2022-11-15T08:05:50;100308.09;;;11.03;99.53
8051;BME280;4068;42.158;24.732;2022-11-15T08:08:16;100301.16;;;11.14;99.10
8051;BME280;4068;42.158;24.732;2022-11-15T08:10:41;100294.16;;;11.13;97.81
8051;BME280;4068;42.158;24.732;2022-11-15T08:13:09;100291.38;;;11.14;97.86
8051;BME280;4068;42.158;24.732;2022-11-15T08:15:35;100281.97;;;11.10;98.18
8051;BME280;4068;42.158;24.732;2022-11-15T08:18:05;100296.06;;;11.23;98.05
8051;BME280;4068;42.158;24.732;2022-11-15T08:20:31;100292.31;;;11.39;96.64
8051;BME280;4068;42.158;24.732;2022-11-15T08:22:58;100284.72;;;11.46;96.55
8051;BME280;4068;42.158;24.732;2022-11-15T08:25:24;100289.88;;;11.36;95.35
8051;BME280;4068;42.158;24.732;2022-11-15T08:27:56;100275.75;;;11.22;96.16
8051;BME280;4068;42.158;24.732;2022-11-15T08:30:21;100276.94;;;11.18;95.97
8051;BME280;4068;42.158;24.732;2022-11-15T08:32:48;100268.00;;;11.19;95.65
8051;BME280;4068;42.158;24.732;2022-11-15T08:35:14;100284.56;;;11.36;96.35
8051;BME280;4068;42.158;24.732;2022-11-15T08:37:39;100255.88;;;11.28;96.60
8051;BME280;4068;42.158;24.732;2022-11-15T08:40:05;100246.84;;;11.31;96.37
8051;BME280;4068;42.158;24.732;2022-11-15T08:42:31;100275.38;;;11.53;96.33
8051;BME280;4068;42.158;24.732;2022-11-15T08:44:57;100278.66;;;11.81;95.96
8051;BME280;4068;42.158;24.732;2022-11-15T08:47:22;100268.66;;;11.84;96.01
8051;BME280;4068;42.158;24.732;2022-11-15T08:49:47;100261.50;;;11.85;95.46
8051;BME280;4068;42.158;24.732;2022-11-15T08:52:13;100267.03;;;11.95;96.85
8051;BME280;4068;42.158;24.732;2022-11-15T08:54:39;100267.00;;;12.19;96.82
8051;BME280;4068;42.158;24.732;2022-11-15T08:57:04;100280.22;;;12.43;95.45
8051;BME280;4068;42.158;24.732;2022-11-15T08:59:30;100262.81;;;12.39;96.08
8051;BME280;4068;42.158;24.732;2022-11-15T09:01:55;100259.53;;;12.47;95.88
8051;BME280;4068;42.158;24.732;2022-11-15T09:04:20;100250.63;;;12.70;95.91
8051;BME280;4068;42.158;24.732;2022-11-15T09:06:46;100239.88;;;12.83;94.13
8051;BME280;4068;42.158;24.732;2022-11-15T09:11:55;100223.63;;;13.09;93.57
8051;BME280;4068;42.158;24.732;2022-11-15T09:14:21;100221.09;;;13.19;93.94
8051;BME280;4068;42.158;24.732;2022-11-15T09:16:46;100221.31;;;13.27;93.28
8051;BME280;4068;42.158;24.732;2022-11-15T09:19:11;100184.38;;;13.22;93.04
8051;BME280;4068;42.158;24.732;2022-11-15T09:21:37;100217.63;;;13.51;90.91
8051;BME280;4068;42.158;24.732;2022-11-15T09:24:02;100213.41;;;13.48;91.08
8051;BME280;4068;42.158;24.732;2022-11-15T09:26:29;100129.41;;;13.33;90.55
8051;BME280;4068;42.158;24.732;2022-11-15T09:28:54;100198.66;;;13.97;90.26
8051;BME280;4068;42.158;24.732;2022-11-15T09:31:20;100199.28;;;13.69;90.41
8051;BME280;4068;42.158;24.732;2022-11-15T09:33:45;100194.56;;;13.93;90.95
8051;BME280;4068;42.158;24.732;2022-11-15T09:36:11;100173.94;;;13.95;90.27
8051;BME280;4068;42.158;24.732;2022-11-15T09:38:37;100193.41;;;14.07;91.18
8051;BME280;4068;42.158;24.732;2022-11-15T09:49:33;100172.16;;;13.63;94.21
8051;BME280;4068;42.158;24.732;2022-11-15T09:51:59;100171.13;;;13.76;93.39
8051;BME280;4068;42.158;24.732;2022-11-15T09:57:21;100161.13;;;14.10;91.97
8051;BME280;4068;42.158;24.732;2022-11-15T10:00:20;100141.88;;;14.07;90.40
8051;BME280;4068;42.158;24.732;2022-11-15T10:03:14;100155.34;;;14.05;90.34
8051;BME280;4068;42.158;24.732;2022-11-15T10:05:46;100151.13;;;14.33;90.25
8051;BME280;4068;42.158;24.732;2022-11-15T10:08:22;100141.59;;;14.41;89.13
8051;BME280;4068;42.158;24.732;2022-11-15T10:10:56;100141.50;;;14.42;88.49
8051;BME280;4068;42.158;24.732;2022-11-15T10:13:28;100147.84;;;14.51;88.06
8051;BME280;4068;42.158;24.732;2022-11-15T10:16:09;100140.28;;;14.56;87.98
8051;BME280;4068;42.158;24.732;2022-11-15T10:18:52;100128.28;;;14.72;87.11
8051;BME280;4068;42.158;24.732;2022-11-15T10:21:25;100129.41;;;14.79;86.23
8051;BME280;4068;42.158;24.732;2022-11-15T10:23:54;100122.03;;;15.12;85.39
8051;BME280;4068;42.158;24.732;2022-11-15T10:26:21;100103.78;;;15.36;84.07
8051;BME280;4068;42.158;24.732;2022-11-15T10:28:46;100131.47;;;15.84;82.27
8051;BME280;4068;42.158;24.732;2022-11-15T10:31:40;100130.34;;;15.97;81.04
8051;BME280;4068;42.158;24.732;2022-11-15T10:34:18;100112.84;;;16.12;80.84
8051;BME280;4068;42.158;24.732;2022-11-15T10:36:54;100111.53;;;16.54;77.53
8051;BME280;4068;42.158;24.732;2022-11-15T10:39:20;100107.28;;;16.33;77.51
8051;BME280;4068;42.158;24.732;2022-11-15T10:41:46;100101.44;;;16.48;78.65
8051;BME280;4068;42.158;24.732;2022-11-15T10:44:18;100095.53;;;16.72;77.07
8051;BME280;4068;42.158;24.732;2022-11-15T10:47:03;100070.41;;;16.55;76.55
8051;BME280;4068;42.158;24.732;2022-11-15T10:49:33;100062.94;;;16.21;77.94
8051;BME280;4068;42.158;24.732;2022-11-15T10:52:14;100079.72;;;16.51;77.47
8051;BME280;4068;42.158;24.732;2022-11-15T10:57:13;100074.88;;;16.54;80.85
8051;BME280;4068;42.158;24.732;2022-11-15T10:59:44;100066.53;;;16.85;76.88
8051;BME280;4068;42.158;24.732;2022-11-15T11:04:55;100056.47;;;17.15;73.36
8051;BME280;4068;42.158;24.732;2022-11-15T11:07:27;100056.56;;;17.05;73.07
8051;BME280;4068;42.158;24.732;2022-11-15T11:10:18;100061.16;;;17.13;72.92
8051;BME280;4068;42.158;24.732;2022-11-15T11:12:44;100028.91;;;17.23;73.42
8051;BME280;4068;42.158;24.732;2022-11-15T11:15:28;100047.81;;;17.39;72.48
8051;BME280;4068;42.158;24.732;2022-11-15T11:18:00;100036.56;;;17.00;73.38
8051;BME280;4068;42.158;24.732;2022-11-15T11:20:46;100026.78;;;16.63;74.89
8051;BME280;4068;42.158;24.732;2022-11-15T11:31:43;100013.38;;;15.89;78.40
8051;BME280;4068;42.158;24.732;2022-11-15T11:37:03;100009.81;;;15.51;79.47
8051;BME280;4068;42.158;24.732;2022-11-15T11:45:40;99984.00;;;15.69;80.38
8051;BME280;4068;42.158;24.732;2022-11-15T11:50:37;99969.47;;;15.34;80.37
8051;BME280;4068;42.158;24.732;2022-11-15T11:53:22;99987.63;;;15.11;81.23
8051;BME280;4068;42.158;24.732;2022-11-15T11:55:53;99958.69;;;15.07;80.83
8051;BME280;4068;42.158;24.732;2022-11-15T11:58:33;99974.56;;;14.98;81.47
8051;BME280;4068;42.158;24.732;2022-11-15T12:01:13;99981.88;;;15.06;81.59
8051;BME280;4068;42.158;24.732;2022-11-15T12:03:45;99980.75;;;15.09;81.84
8051;BME280;4068;42.158;24.732;2022-11-15T12:06:27;99963.59;;;15.01;81.37
8051;BME280;4068;42.158;24.732;2022-11-15T12:09:06;99931.03;;;14.78;82.54
8051;BME280;4068;42.158;24.732;2022-11-15T12:16:57;99950.22;;;14.43;81.34
8051;BME280;4068;42.158;24.732;2022-11-15T12:19:24;99959.34;;;14.40;83.22
8051;BME280;4068;42.158;24.732;2022-11-15T12:27:17;99937.81;;;14.22;84.27
8051;BME280;4068;42.158;24.732;2022-11-15T12:29:51;99903.00;;;14.14;84.42
8051;BME280;4068;42.158;24.732;2022-11-15T12:33:00;99943.03;;;14.33;84.27
8051;BME280;4068;42.158;24.732;2022-11-15T12:35:27;99939.22;;;14.26;84.04
8051;BME280;4068;42.158;24.732;2022-11-15T12:37:56;99932.34;;;14.14;85.17
8051;BME280;4068;42.158;24.732;2022-11-15T12:40:25;99931.22;;;14.07;84.82
8051;BME280;4068;42.158;24.732;2022-11-15T12:45:40;99931.47;;;14.04;85.21
8051;BME280;4068;42.158;24.732;2022-11-15T12:50:54;99920.16;;;13.80;86.01
8051;BME280;4068;42.158;24.732;2022-11-15T12:56:09;99907.22;;;13.66;86.98
8051;BME280;4068;42.158;24.732;2022-11-15T12:58:56;99900.59;;;13.60;87.37
8051;BME280;4068;42.158;24.732;2022-11-15T13:06:46;99902.03;;;13.64;86.81
8051;BME280;4068;42.158;24.732;2022-11-15T13:12:09;99891.38;;;13.64;86.90
8051;BME280;4068;42.158;24.732;2022-11-15T13:14:47;99892.06;;;13.67;87.04
8051;BME280;4068;42.158;24.732;2022-11-15T13:22:26;99867.75;;;13.50;87.21
8051;BME280;4068;42.158;24.732;2022-11-15T13:33:41;99869.88;;;13.56;88.99
8051;BME280;4068;42.158;24.732;2022-11-15T13:36:14;99847.38;;;13.39;88.90
8051;BME280;4068;42.158;24.732;2022-11-15T13:38:42;99873.66;;;13.54;89.17
8051;BME280;4068;42.158;24.732;2022-11-15T13:41:19;99851.59;;;13.42;89.28
8051;BME280;4068;42.158;24.732;2022-11-15T13:43:45;99832.69;;;13.24;89.40
8051;BME280;4068;42.158;24.732;2022-11-15T13:46:31;99867.03;;;13.38;90.13
8051;BME280;4068;42.158;24.732;2022-11-15T13:49:08;99869.53;;;13.40;90.70
8051;BME280;4068;42.158;24.732;2022-11-15T13:51:53;99856.72;;;13.34;90.76
8051;BME280;4068;42.158;24.732;2022-11-15T13:54:30;99863.41;;;13.28;90.92
8051;BME280;4068;42.158;24.732;2022-11-15T13:57:11;99861.56;;;13.19;92.17
8051;BME280;4068;42.158;24.732;2022-11-15T13:59:50;99821.47;;;12.89;92.85
8051;BME280;4068;42.158;24.732;2022-11-15T14:02:18;99857.00;;;13.09;93.30
8051;BME280;4068;42.158;24.732;2022-11-15T14:04:49;99851.34;;;12.93;93.98
8051;BME280;4068;42.158;24.732;2022-11-15T14:07:20;99857.44;;;12.84;94.03
8051;BME280;4068;42.158;24.732;2022-11-15T14:09:46;99852.84;;;12.65;95.06
8051;BME280;4068;42.158;24.732;2022-11-15T14:14:51;99854.44;;;12.35;96.78
8051;BME280;4068;42.158;24.732;2022-11-15T14:17:34;99838.78;;;12.20;97.14
8051;BME280;4068;42.158;24.732;2022-11-15T14:19:59;99848.00;;;12.05;99.00
8051;BME280;4068;42.158;24.732;2022-11-15T14:22:29;99862.25;;;12.04;99.18
8051;BME280;4068;42.158;24.732;2022-11-15T14:25:18;99850.78;;;11.92;100.00
8051;BME280;4068;42.158;24.732;2022-11-15T14:30:33;99811.53;;;11.40;100.00
8051;BME280;4068;42.158;24.732;2022-11-15T14:32:59;99852.56;;;11.48;100.00
8051;BME280;4068;42.158;24.732;2022-11-15T14:35:24;99850.41;;;11.30;100.00
8051;BME280;4068;42.158;24.732;2022-11-15T14:37:50;99836.88;;;11.22;100.00
8051;BME280;4068;42.158;24.732;2022-11-15T14:40:18;99851.09;;;11.21;100.00
8051;BME280;4068;42.158;24.732;2022-11-15T14:42:45;99841.22;;;11.12;100.00
8051;BME280;4068;42.158;24.732;2022-11-15T14:45:22;99843.00;;;11.00;100.00
8051;BME280;4068;42.158;24.732;2022-11-15T14:47:47;99843.34;;;10.84;100.00
8051;BME280;4068;42.158;24.732;2022-11-15T14:50:15;99837.19;;;10.72;100.00
8051;BME280;4068;42.158;24.732;2022-11-15T14:52:41;99821.47;;;10.58;100.00
8051;BME280;4068;42.158;24.732;2022-11-15T14:55:23;99828.00;;;10.65;100.00
8051;BME280;4068;42.158;24.732;2022-11-15T14:57:49;99835.81;;;10.55;100.00
8051;BME280;4068;42.158;24.732;2022-11-15T15:00:16;99826.75;;;10.46;100.00
8051;BME280;4068;42.158;24.732;2022-11-15T15:02:43;99838.91;;;10.38;100.00
8051;BME280;4068;42.158;24.732;2022-11-15T15:05:16;99798.84;;;10.05;100.00